Portada
METAR-TAF:

METAR-TAF

Aeroports :

Colònia, Alemanya

latitud: 50-52N, longitud: 007-10E, altitud: 91 m

Observació

L'informe es va fer fa 29 minuts, a les 08:20 UTC
Vent 1 kt amb direcció variable
Temperatura 15°C
Humitat 82%
Pressió 1016 hPa
Visibilitat: 8000 m
Cel ennuvolat a una alçada de 2400 ft

METAR: EDDK 170820Z VRB01KT 8000 BKN024 15/12 Q1016 NOSIG

Hora: 10:49 (08:49 UTC)

Pronòstic

L'informe es va fer fa 3 hores i 49 minuts, a les 05:00 UTC
Pronòstic vàlid del 17 a les 06 UTC al 18 a les 12 UTC
Vent 3 kt amb direcció variable
Visibilitat 10 km o més
Cel ennuvolat a una alçada de 3500 ft
Evolucionant progressivament
l' 18 a les 06 UTC al 18 a les 09 UTC
Vent 5 kt del Sud/Sud-Est

TAF: EDDK 170500Z 1706/1812 VRB03KT 9999 BKN035 BECMG 1806/1809 16005KT

Observacions i pronòstics meteorològics de més de 4000 aeroports (METAR i TAF).

Les estacions disponibles són els punts grocs i vermells al mapa.

Posi el ratolí al punt desitjat per veure el nom de l'estació.

Feu clic per veure les observacions i els pronòstics meteorològics.

Per canviar el mapa: feu clic els botons verds amb una creu de color negre per apropar; al botó verd amb un guió per allunyar la imatge; o en les fletxes verdes per a mapes adjacents.


METAR-TAF: